sensor_id;sensor_type;location;lat;lon;timestamp;P1;durP1;ratioP1;P2;durP2;ratioP2
20954;SDS011;10636;19.390;-99.256;2022-11-12T00:00:10;16.30;;;13.52;;
20954;SDS011;10636;19.390;-99.256;2022-11-12T00:02:44;16.27;;;14.07;;
20954;SDS011;10636;19.390;-99.256;2022-11-12T00:05:13;13.90;;;12.35;;
20954;SDS011;10636;19.390;-99.256;2022-11-12T00:07:45;13.57;;;12.18;;
20954;SDS011;10636;19.390;-99.256;2022-11-12T00:10:16;15.73;;;14.15;;
20954;SDS011;10636;19.390;-99.256;2022-11-12T00:12:48;14.98;;;13.38;;
20954;SDS011;10636;19.390;-99.256;2022-11-12T00:15:20;17.38;;;12.50;;
20954;SDS011;10636;19.390;-99.256;2022-11-12T00:17:52;14.13;;;12.73;;
20954;SDS011;10636;19.390;-99.256;2022-11-12T00:20:20;14.88;;;13.30;;
20954;SDS011;10636;19.390;-99.256;2022-11-12T00:22:49;14.10;;;12.80;;
20954;SDS011;10636;19.390;-99.256;2022-11-12T00:25:17;17.08;;;13.75;;
20954;SDS011;10636;19.390;-99.256;2022-11-12T00:27:49;14.60;;;13.07;;
20954;SDS011;10636;19.390;-99.256;2022-11-12T00:30:19;14.02;;;12.68;;
20954;SDS011;10636;19.390;-99.256;2022-11-12T00:32:47;15.25;;;12.52;;
20954;SDS011;10636;19.390;-99.256;2022-11-12T00:35:16;15.02;;;13.40;;
20954;SDS011;10636;19.390;-99.256;2022-11-12T00:37:45;14.52;;;13.02;;
20954;SDS011;10636;19.390;-99.256;2022-11-12T00:40:14;15.68;;;13.93;;
20954;SDS011;10636;19.390;-99.256;2022-11-12T00:42:42;14.77;;;13.10;;
20954;SDS011;10636;19.390;-99.256;2022-11-12T00:45:11;14.98;;;11.20;;
20954;SDS011;10636;19.390;-99.256;2022-11-12T00:47:43;17.85;;;13.90;;
20954;SDS011;10636;19.390;-99.256;2022-11-12T00:50:14;19.05;;;16.23;;
20954;SDS011;10636;19.390;-99.256;2022-11-12T00:52:43;17.23;;;14.90;;
20954;SDS011;10636;19.390;-99.256;2022-11-12T00:55:14;15.63;;;14.02;;
20954;SDS011;10636;19.390;-99.256;2022-11-12T00:57:43;15.13;;;13.45;;
20954;SDS011;10636;19.390;-99.256;2022-11-12T01:00:13;16.30;;;14.63;;
20954;SDS011;10636;19.390;-99.256;2022-11-12T01:02:44;21.17;;;17.35;;
20954;SDS011;10636;19.390;-99.256;2022-11-12T01:05:13;18.13;;;16.02;;
20954;SDS011;10636;19.390;-99.256;2022-11-12T01:07:47;18.05;;;15.90;;
20954;SDS011;10636;19.390;-99.256;2022-11-12T01:10:18;20.02;;;16.10;;
20954;SDS011;10636;19.390;-99.256;2022-11-12T01:12:46;19.35;;;17.42;;
20954;SDS011;10636;19.390;-99.256;2022-11-12T01:15:15;23.48;;;16.80;;
20954;SDS011;10636;19.390;-99.256;2022-11-12T01:17:45;20.58;;;18.13;;
20954;SDS011;10636;19.390;-99.256;2022-11-12T01:20:14;18.98;;;16.92;;
20954;SDS011;10636;19.390;-99.256;2022-11-12T01:22:42;18.48;;;16.52;;
20954;SDS011;10636;19.390;-99.256;2022-11-12T01:25:14;21.80;;;17.10;;
20954;SDS011;10636;19.390;-99.256;2022-11-12T01:27:42;18.98;;;16.98;;
20954;SDS011;10636;19.390;-99.256;2022-11-12T01:30:11;20.35;;;16.45;;
20954;SDS011;10636;19.390;-99.256;2022-11-12T01:32:43;20.05;;;16.05;;
20954;SDS011;10636;19.390;-99.256;2022-11-12T01:35:16;19.75;;;17.77;;
20954;SDS011;10636;19.390;-99.256;2022-11-12T01:37:46;23.10;;;18.65;;
20954;SDS011;10636;19.390;-99.256;2022-11-12T01:40:15;19.70;;;17.80;;
20954;SDS011;10636;19.390;-99.256;2022-11-12T01:42:50;19.83;;;17.13;;
20954;SDS011;10636;19.390;-99.256;2022-11-12T01:45:19;20.23;;;18.10;;
20954;SDS011;10636;19.390;-99.256;2022-11-12T01:47:49;23.13;;;18.77;;
20954;SDS011;10636;19.390;-99.256;2022-11-12T01:50:21;18.25;;;16.45;;
20954;SDS011;10636;19.390;-99.256;2022-11-12T01:52:53;20.27;;;18.25;;
20954;SDS011;10636;19.390;-99.256;2022-11-12T01:55:27;20.35;;;18.40;;
20954;SDS011;10636;19.390;-99.256;2022-11-12T01:57:59;20.60;;;18.60;;
20954;SDS011;10636;19.390;-99.256;2022-11-12T02:00:36;20.05;;;18.08;;
20954;SDS011;10636;19.390;-99.256;2022-11-12T02:03:08;20.75;;;17.63;;
20954;SDS011;10636;19.390;-99.256;2022-11-12T02:05:41;21.27;;;19.17;;
20954;SDS011;10636;19.390;-99.256;2022-11-12T02:08:14;20.45;;;18.35;;
20954;SDS011;10636;19.390;-99.256;2022-11-12T02:10:49;21.17;;;18.90;;
20954;SDS011;10636;19.390;-99.256;2022-11-12T02:13:17;21.23;;;18.92;;
20954;SDS011;10636;19.390;-99.256;2022-11-12T02:16:06;20.75;;;18.42;;
20954;SDS011;10636;19.390;-99.256;2022-11-12T02:18:39;19.33;;;17.27;;
20954;SDS011;10636;19.390;-99.256;2022-11-12T02:21:07;20.67;;;18.30;;
20954;SDS011;10636;19.390;-99.256;2022-11-12T02:23:38;19.27;;;16.95;;
20954;SDS011;10636;19.390;-99.256;2022-11-12T02:26:08;20.92;;;18.83;;
20954;SDS011;10636;19.390;-99.256;2022-11-12T02:28:37;20.27;;;18.20;;
20954;SDS011;10636;19.390;-99.256;2022-11-12T02:31:05;20.38;;;18.38;;
20954;SDS011;10636;19.390;-99.256;2022-11-12T02:33:33;20.75;;;18.58;;
20954;SDS011;10636;19.390;-99.256;2022-11-12T02:36:02;22.17;;;18.92;;
20954;SDS011;10636;19.390;-99.256;2022-11-12T02:38:31;19.92;;;18.02;;
20954;SDS011;10636;19.390;-99.256;2022-11-12T02:41:01;20.98;;;18.77;;
20954;SDS011;10636;19.390;-99.256;2022-11-12T02:43:29;20.02;;;18.13;;
20954;SDS011;10636;19.390;-99.256;2022-11-12T02:45:58;20.92;;;18.80;;
20954;SDS011;10636;19.390;-99.256;2022-11-12T02:48:29;21.80;;;19.60;;
20954;SDS011;10636;19.390;-99.256;2022-11-12T02:50:57;22.83;;;20.13;;
20954;SDS011;10636;19.390;-99.256;2022-11-12T02:53:26;21.98;;;19.45;;
20954;SDS011;10636;19.390;-99.256;2022-11-12T02:55:54;21.23;;;18.85;;
20954;SDS011;10636;19.390;-99.256;2022-11-12T02:58:24;22.25;;;18.58;;
20954;SDS011;10636;19.390;-99.256;2022-11-12T03:00:53;22.75;;;20.33;;
20954;SDS011;10636;19.390;-99.256;2022-11-12T03:03:21;21.80;;;19.63;;
20954;SDS011;10636;19.390;-99.256;2022-11-12T03:05:53;22.15;;;19.77;;
20954;SDS011;10636;19.390;-99.256;2022-11-12T03:08:23;22.63;;;20.30;;
20954;SDS011;10636;19.390;-99.256;2022-11-12T03:10:52;24.25;;;19.27;;
20954;SDS011;10636;19.390;-99.256;2022-11-12T03:13:20;21.60;;;19.25;;
20954;SDS011;10636;19.390;-99.256;2022-11-12T03:15:52;22.73;;;20.35;;
20954;SDS011;10636;19.390;-99.256;2022-11-12T03:18:26;21.73;;;19.42;;
20954;SDS011;10636;19.390;-99.256;2022-11-12T03:20:55;22.70;;;20.38;;
20954;SDS011;10636;19.390;-99.256;2022-11-12T03:23:24;23.23;;;20.48;;
20954;SDS011;10636;19.390;-99.256;2022-11-12T03:25:53;23.70;;;21.27;;
20954;SDS011;10636;19.390;-99.256;2022-11-12T03:28:21;22.70;;;19.95;;
20954;SDS011;10636;19.390;-99.256;2022-11-12T03:30:55;21.80;;;19.55;;
20954;SDS011;10636;19.390;-99.256;2022-11-12T03:33:24;21.55;;;19.45;;
20954;SDS011;10636;19.390;-99.256;2022-11-12T03:35:53;21.15;;;19.15;;
20954;SDS011;10636;19.390;-99.256;2022-11-12T03:38:22;22.38;;;20.08;;
20954;SDS011;10636;19.390;-99.256;2022-11-12T03:40:50;21.90;;;19.65;;
20954;SDS011;10636;19.390;-99.256;2022-11-12T03:43:18;22.83;;;20.30;;
20954;SDS011;10636;19.390;-99.256;2022-11-12T03:45:47;21.60;;;19.38;;
20954;SDS011;10636;19.390;-99.256;2022-11-12T03:48:17;21.27;;;18.92;;
20954;SDS011;10636;19.390;-99.256;2022-11-12T03:50:45;22.88;;;20.58;;
20954;SDS011;10636;19.390;-99.256;2022-11-12T03:53:14;22.77;;;19.27;;
20954;SDS011;10636;19.390;-99.256;2022-11-12T03:55:42;21.05;;;18.88;;
20954;SDS011;10636;19.390;-99.256;2022-11-12T03:58:11;20.75;;;18.75;;
20954;SDS011;10636;19.390;-99.256;2022-11-12T04:00:39;21.58;;;19.38;;
20954;SDS011;10636;19.390;-99.256;2022-11-12T04:03:08;22.00;;;19.70;;
20954;SDS011;10636;19.390;-99.256;2022-11-12T04:05:41;21.90;;;19.63;;
20954;SDS011;10636;19.390;-99.256;2022-11-12T04:08:26;22.20;;;20.08;;
20954;SDS011;10636;19.390;-99.256;2022-11-12T04:11:04;23.35;;;20.92;;
20954;SDS011;10636;19.390;-99.256;2022-11-12T04:13:37;21.95;;;19.83;;
20954;SDS011;10636;19.390;-99.256;2022-11-12T04:16:05;21.38;;;19.17;;
20954;SDS011;10636;19.390;-99.256;2022-11-12T04:18:52;22.95;;;20.58;;
20954;SDS011;10636;19.390;-99.256;2022-11-12T04:21:41;23.63;;;21.30;;
20954;SDS011;10636;19.390;-99.256;2022-11-12T04:24:17;23.35;;;21.08;;
20954;SDS011;10636;19.390;-99.256;2022-11-12T04:27:05;25.08;;;22.50;;
20954;SDS011;10636;19.390;-99.256;2022-11-12T04:29:34;22.83;;;20.42;;
20954;SDS011;10636;19.390;-99.256;2022-11-12T04:32:19;22.92;;;20.35;;
20954;SDS011;10636;19.390;-99.256;2022-11-12T04:34:48;23.73;;;20.90;;
20954;SDS011;10636;19.390;-99.256;2022-11-12T04:37:19;23.95;;;21.38;;
20954;SDS011;10636;19.390;-99.256;2022-11-12T04:39:47;24.10;;;21.20;;
20954;SDS011;10636;19.390;-99.256;2022-11-12T04:42:16;25.48;;;22.88;;
20954;SDS011;10636;19.390;-99.256;2022-11-12T04:45:02;25.48;;;22.95;;
20954;SDS011;10636;19.390;-99.256;2022-11-12T04:47:32;25.33;;;22.92;;
20954;SDS011;10636;19.390;-99.256;2022-11-12T04:50:01;28.48;;;21.80;;
20954;SDS011;10636;19.390;-99.256;2022-11-12T04:52:33;26.15;;;23.65;;
20954;SDS011;10636;19.390;-99.256;2022-11-12T04:55:02;26.60;;;23.80;;
20954;SDS011;10636;19.390;-99.256;2022-11-12T04:57:31;26.13;;;23.73;;
20954;SDS011;10636;19.390;-99.256;2022-11-12T05:00:00;27.55;;;24.95;;
20954;SDS011;10636;19.390;-99.256;2022-11-12T05:02:29;27.70;;;24.92;;
20954;SDS011;10636;19.390;-99.256;2022-11-12T05:04:57;27.98;;;25.20;;
20954;SDS011;10636;19.390;-99.256;2022-11-12T05:07:26;27.35;;;24.75;;
20954;SDS011;10636;19.390;-99.256;2022-11-12T05:09:56;30.00;;;27.20;;
20954;SDS011;10636;19.390;-99.256;2022-11-12T05:12:24;30.40;;;27.58;;
20954;SDS011;10636;19.390;-99.256;2022-11-12T05:14:53;29.67;;;26.92;;
20954;SDS011;10636;19.390;-99.256;2022-11-12T05:17:21;25.42;;;22.73;;
20954;SDS011;10636;19.390;-99.256;2022-11-12T05:19:49;27.55;;;22.90;;
20954;SDS011;10636;19.390;-99.256;2022-11-12T05:22:18;29.15;;;26.35;;
20954;SDS011;10636;19.390;-99.256;2022-11-12T05:24:46;31.20;;;28.15;;
20954;SDS011;10636;19.390;-99.256;2022-11-12T05:27:17;30.70;;;27.85;;
20954;SDS011;10636;19.390;-99.256;2022-11-12T05:29:47;32.20;;;29.25;;
20954;SDS011;10636;19.390;-99.256;2022-11-12T05:32:15;33.70;;;30.80;;
20954;SDS011;10636;19.390;-99.256;2022-11-12T05:34:44;36.50;;;33.22;;
20954;SDS011;10636;19.390;-99.256;2022-11-12T05:37:13;33.97;;;31.13;;
20954;SDS011;10636;19.390;-99.256;2022-11-12T05:39:41;27.90;;;24.02;;
20954;SDS011;10636;19.390;-99.256;2022-11-12T05:42:12;27.35;;;23.75;;
20954;SDS011;10636;19.390;-99.256;2022-11-12T05:44:42;27.02;;;23.35;;
20954;SDS011;10636;19.390;-99.256;2022-11-12T05:47:10;26.98;;;22.95;;
20954;SDS011;10636;19.390;-99.256;2022-11-12T05:49:39;33.47;;;30.40;;
20954;SDS011;10636;19.390;-99.256;2022-11-12T05:52:07;37.17;;;33.88;;
20954;SDS011;10636;19.390;-99.256;2022-11-12T05:54:35;27.40;;;22.65;;
20954;SDS011;10636;19.390;-99.256;2022-11-12T05:57:04;36.47;;;33.15;;
20954;SDS011;10636;19.390;-99.256;2022-11-12T05:59:32;37.50;;;34.40;;
20954;SDS011;10636;19.390;-99.256;2022-11-12T06:02:02;27.98;;;24.23;;
20954;SDS011;10636;19.390;-99.256;2022-11-12T06:04:31;36.70;;;33.58;;
20954;SDS011;10636;19.390;-99.256;2022-11-12T06:06:59;27.58;;;22.92;;
20954;SDS011;10636;19.390;-99.256;2022-11-12T06:09:28;35.63;;;32.58;;
20954;SDS011;10636;19.390;-99.256;2022-11-12T06:11:57;28.80;;;24.90;;
20954;SDS011;10636;19.390;-99.256;2022-11-12T06:14:25;39.70;;;36.53;;
20954;SDS011;10636;19.390;-99.256;2022-11-12T06:16:53;25.98;;;23.27;;
20954;SDS011;10636;19.390;-99.256;2022-11-12T06:19:24;29.10;;;23.70;;
20954;SDS011;10636;19.390;-99.256;2022-11-12T06:21:52;40.88;;;37.28;;
20954;SDS011;10636;19.390;-99.256;2022-11-12T06:24:20;29.25;;;24.08;;
20954;SDS011;10636;19.390;-99.256;2022-11-12T06:26:49;28.83;;;24.05;;
20954;SDS011;10636;19.390;-99.256;2022-11-12T06:29:17;29.95;;;25.30;;
20954;SDS011;10636;19.390;-99.256;2022-11-12T06:31:45;42.30;;;38.80;;
20954;SDS011;10636;19.390;-99.256;2022-11-12T06:34:14;27.63;;;24.55;;
20954;SDS011;10636;19.390;-99.256;2022-11-12T06:36:44;27.90;;;24.60;;
20954;SDS011;10636;19.390;-99.256;2022-11-12T06:39:13;27.55;;;24.50;;
20954;SDS011;10636;19.390;-99.256;2022-11-12T06:41:41;41.15;;;37.78;;
20954;SDS011;10636;19.390;-99.256;2022-11-12T06:44:10;43.28;;;39.63;;
20954;SDS011;10636;19.390;-99.256;2022-11-12T06:46:38;45.55;;;41.90;;
20954;SDS011;10636;19.390;-99.256;2022-11-12T06:49:07;42.53;;;39.13;;
20954;SDS011;10636;19.390;-99.256;2022-11-12T06:51:35;43.65;;;40.15;;
20954;SDS011;10636;19.390;-99.256;2022-11-12T06:54:06;43.53;;;40.13;;
20954;SDS011;10636;19.390;-99.256;2022-11-12T06:56:34;41.20;;;38.05;;
20954;SDS011;10636;19.390;-99.256;2022-11-12T06:59:03;43.38;;;40.03;;
20954;SDS011;10636;19.390;-99.256;2022-11-12T07:01:31;29.55;;;24.55;;
20954;SDS011;10636;19.390;-99.256;2022-11-12T07:03:59;29.58;;;24.73;;
20954;SDS011;10636;19.390;-99.256;2022-11-12T07:06:28;27.67;;;24.38;;
20954;SDS011;10636;19.390;-99.256;2022-11-12T07:08:56;40.90;;;37.63;;
20954;SDS011;10636;19.390;-99.256;2022-11-12T07:11:26;43.63;;;40.15;;
20954;SDS011;10636;19.390;-99.256;2022-11-12T07:13:55;43.53;;;40.10;;
20954;SDS011;10636;19.390;-99.256;2022-11-12T07:16:23;44.47;;;40.97;;
20954;SDS011;10636;19.390;-99.256;2022-11-12T07:18:52;28.90;;;24.52;;
20954;SDS011;10636;19.390;-99.256;2022-11-12T07:21:20;40.35;;;37.15;;
20954;SDS011;10636;19.390;-99.256;2022-11-12T07:23:49;41.60;;;38.20;;
20954;SDS011;10636;19.390;-99.256;2022-11-12T07:26:17;44.83;;;41.38;;
20954;SDS011;10636;19.390;-99.256;2022-11-12T07:28:49;26.92;;;23.40;;
20954;SDS011;10636;19.390;-99.256;2022-11-12T07:31:18;24.88;;;21.55;;
20954;SDS011;10636;19.390;-99.256;2022-11-12T07:33:47;23.58;;;21.08;;
20954;SDS011;10636;19.390;-99.256;2022-11-12T07:36:17;38.83;;;35.70;;
20954;SDS011;10636;19.390;-99.256;2022-11-12T07:38:46;39.85;;;36.67;;
20954;SDS011;10636;19.390;-99.256;2022-11-12T07:41:18;37.63;;;34.72;;
20954;SDS011;10636;19.390;-99.256;2022-11-12T07:43:50;38.38;;;35.55;;
20954;SDS011;10636;19.390;-99.256;2022-11-12T07:46:20;37.17;;;34.22;;
20954;SDS011;10636;19.390;-99.256;2022-11-12T07:48:50;36.05;;;33.30;;
20954;SDS011;10636;19.390;-99.256;2022-11-12T07:51:19;36.75;;;33.85;;
20954;SDS011;10636;19.390;-99.256;2022-11-12T07:53:48;34.70;;;32.10;;
20954;SDS011;10636;19.390;-99.256;2022-11-12T07:56:19;34.92;;;32.13;;
20954;SDS011;10636;19.390;-99.256;2022-11-12T07:58:50;35.88;;;33.17;;
20954;SDS011;10636;19.390;-99.256;2022-11-12T08:01:22;35.17;;;32.53;;
20954;SDS011;10636;19.390;-99.256;2022-11-12T08:03:57;35.20;;;32.60;;
20954;SDS011;10636;19.390;-99.256;2022-11-12T08:06:26;34.70;;;31.95;;
20954;SDS011;10636;19.390;-99.256;2022-11-12T08:08:55;32.83;;;30.38;;
20954;SDS011;10636;19.390;-99.256;2022-11-12T08:11:24;32.13;;;29.65;;
20954;SDS011;10636;19.390;-99.256;2022-11-12T08:13:54;35.58;;;32.97;;
20954;SDS011;10636;19.390;-99.256;2022-11-12T08:16:23;21.80;;;19.50;;
20954;SDS011;10636;19.390;-99.256;2022-11-12T08:18:51;21.73;;;19.08;;
20954;SDS011;10636;19.390;-99.256;2022-11-12T08:21:20;20.13;;;18.05;;
20954;SDS011;10636;19.390;-99.256;2022-11-12T08:23:48;27.42;;;25.20;;
20954;SDS011;10636;19.390;-99.256;2022-11-12T08:26:17;28.08;;;25.80;;
20954;SDS011;10636;19.390;-99.256;2022-11-12T08:28:46;26.42;;;24.27;;
20954;SDS011;10636;19.390;-99.256;2022-11-12T08:31:17;21.55;;;18.55;;
20954;SDS011;10636;19.390;-99.256;2022-11-12T08:33:46;20.48;;;18.27;;
20954;SDS011;10636;19.390;-99.256;2022-11-12T08:36:15;19.20;;;17.30;;
20954;SDS011;10636;19.390;-99.256;2022-11-12T08:38:44;19.83;;;17.83;;
20954;SDS011;10636;19.390;-99.256;2022-11-12T08:41:13;21.05;;;18.80;;
20954;SDS011;10636;19.390;-99.256;2022-11-12T08:43:42;23.88;;;21.83;;
20954;SDS011;10636;19.390;-99.256;2022-11-12T08:46:10;27.42;;;25.23;;
20954;SDS011;10636;19.390;-99.256;2022-11-12T08:48:40;26.10;;;24.00;;
20954;SDS011;10636;19.390;-99.256;2022-11-12T08:51:09;25.90;;;23.75;;
20954;SDS011;10636;19.390;-99.256;2022-11-12T08:53:37;25.98;;;23.95;;
20954;SDS011;10636;19.390;-99.256;2022-11-12T08:56:05;19.33;;;17.33;;
20954;SDS011;10636;19.390;-99.256;2022-11-12T08:58:34;19.83;;;17.73;;
20954;SDS011;10636;19.390;-99.256;2022-11-12T09:01:03;19.25;;;17.25;;
20954;SDS011;10636;19.390;-99.256;2022-11-12T09:03:32;23.13;;;21.17;;
20954;SDS011;10636;19.390;-99.256;2022-11-12T09:06:03;18.70;;;16.80;;
20954;SDS011;10636;19.390;-99.256;2022-11-12T09:08:33;18.80;;;16.83;;
20954;SDS011;10636;19.390;-99.256;2022-11-12T09:11:02;22.67;;;20.77;;
20954;SDS011;10636;19.390;-99.256;2022-11-12T09:13:31;22.20;;;20.27;;
20954;SDS011;10636;19.390;-99.256;2022-11-12T09:16:03;22.80;;;20.80;;
20954;SDS011;10636;19.390;-99.256;2022-11-12T09:18:32;18.42;;;16.45;;
20954;SDS011;10636;19.390;-99.256;2022-11-12T09:21:03;22.88;;;21.00;;
20954;SDS011;10636;19.390;-99.256;2022-11-12T09:23:34;24.05;;;22.13;;
20954;SDS011;10636;19.390;-99.256;2022-11-12T09:26:03;25.27;;;23.20;;
20954;SDS011;10636;19.390;-99.256;2022-11-12T09:28:32;18.67;;;16.67;;
20954;SDS011;10636;19.390;-99.256;2022-11-12T09:31:01;23.20;;;21.20;;
20954;SDS011;10636;19.390;-99.256;2022-11-12T09:33:31;19.50;;;17.33;;
20954;SDS011;10636;19.390;-99.256;2022-11-12T09:35:59;23.15;;;21.25;;
20954;SDS011;10636;19.390;-99.256;2022-11-12T09:38:30;18.20;;;16.35;;
20954;SDS011;10636;19.390;-99.256;2022-11-12T09:41:09;18.05;;;16.25;;
20954;SDS011;10636;19.390;-99.256;2022-11-12T09:43:46;18.55;;;16.65;;
20954;SDS011;10636;19.390;-99.256;2022-11-12T09:46:27;20.45;;;18.73;;
20954;SDS011;10636;19.390;-99.256;2022-11-12T09:49:03;20.50;;;18.60;;
20954;SDS011;10636;19.390;-99.256;2022-11-12T09:51:34;21.98;;;20.08;;
20954;SDS011;10636;19.390;-99.256;2022-11-12T09:54:11;17.80;;;16.00;;
20954;SDS011;10636;19.390;-99.256;2022-11-12T09:56:46;17.50;;;15.77;;
20954;SDS011;10636;19.390;-99.256;2022-11-12T09:59:15;21.70;;;19.90;;
20954;SDS011;10636;19.390;-99.256;2022-11-12T10:01:47;20.17;;;18.35;;
20954;SDS011;10636;19.390;-99.256;2022-11-12T10:04:36;18.50;;;16.60;;
20954;SDS011;10636;19.390;-99.256;2022-11-12T10:07:14;18.58;;;16.67;;
20954;SDS011;10636;19.390;-99.256;2022-11-12T10:09:58;17.13;;;15.43;;
20954;SDS011;10636;19.390;-99.256;2022-11-12T10:12:32;19.27;;;17.60;;
20954;SDS011;10636;19.390;-99.256;2022-11-12T10:15:17;20.30;;;18.50;;
20954;SDS011;10636;19.390;-99.256;2022-11-12T10:18:15;18.20;;;16.27;;
20954;SDS011;10636;19.390;-99.256;2022-11-12T10:20:53;17.52;;;15.68;;
20954;SDS011;10636;19.390;-99.256;2022-11-12T10:23:26;17.77;;;15.38;;
20954;SDS011;10636;19.390;-99.256;2022-11-12T10:26:01;16.95;;;15.23;;
20954;SDS011;10636;19.390;-99.256;2022-11-12T10:28:39;17.05;;;15.35;;
20954;SDS011;10636;19.390;-99.256;2022-11-12T10:31:12;17.70;;;16.00;;
20954;SDS011;10636;19.390;-99.256;2022-11-12T10:33:42;16.70;;;15.00;;
20954;SDS011;10636;19.390;-99.256;2022-11-12T10:36:22;18.98;;;17.27;;
20954;SDS011;10636;19.390;-99.256;2022-11-12T10:38:55;17.73;;;16.23;;
20954;SDS011;10636;19.390;-99.256;2022-11-12T10:41:26;17.08;;;15.10;;
20954;SDS011;10636;19.390;-99.256;2022-11-12T10:43:57;16.98;;;15.18;;
20954;SDS011;10636;19.390;-99.256;2022-11-12T10:46:27;15.52;;;14.02;;
20954;SDS011;10636;19.390;-99.256;2022-11-12T10:49:00;18.60;;;16.90;;
20954;SDS011;10636;19.390;-99.256;2022-11-12T10:51:30;18.15;;;16.65;;
20954;SDS011;10636;19.390;-99.256;2022-11-12T10:54:17;16.55;;;15.05;;
20954;SDS011;10636;19.390;-99.256;2022-11-12T10:56:49;16.85;;;15.43;;
20954;SDS011;10636;19.390;-99.256;2022-11-12T10:59:18;17.08;;;15.57;;
20954;SDS011;10636;19.390;-99.256;2022-11-12T11:01:52;16.88;;;15.48;;
20954;SDS011;10636;19.390;-99.256;2022-11-12T11:04:26;16.83;;;15.32;;
20954;SDS011;10636;19.390;-99.256;2022-11-12T11:06:57;16.33;;;14.93;;
20954;SDS011;10636;19.390;-99.256;2022-11-12T11:09:30;16.02;;;14.63;;
20954;SDS011;10636;19.390;-99.256;2022-11-12T11:12:02;16.67;;;15.18;;
20954;SDS011;10636;19.390;-99.256;2022-11-12T11:14:32;15.88;;;14.48;;
20954;SDS011;10636;19.390;-99.256;2022-11-12T11:17:03;16.25;;;14.75;;
20954;SDS011;10636;19.390;-99.256;2022-11-12T11:19:35;15.02;;;13.52;;
20954;SDS011;10636;19.390;-99.256;2022-11-12T11:22:17;15.35;;;13.85;;
20954;SDS011;10636;19.390;-99.256;2022-11-12T11:25:16;16.42;;;15.00;;
20954;SDS011;10636;19.390;-99.256;2022-11-12T11:27:57;16.23;;;14.82;;
20954;SDS011;10636;19.390;-99.256;2022-11-12T11:30:35;15.25;;;13.75;;
20954;SDS011;10636;19.390;-99.256;2022-11-12T11:33:17;16.48;;;15.07;;
20954;SDS011;10636;19.390;-99.256;2022-11-12T11:35:54;17.00;;;15.50;;
20954;SDS011;10636;19.390;-99.256;2022-11-12T11:38:34;16.33;;;14.82;;
20954;SDS011;10636;19.390;-99.256;2022-11-12T11:41:19;17.02;;;15.38;;
20954;SDS011;10636;19.390;-99.256;2022-11-12T11:44:05;15.65;;;14.25;;
20954;SDS011;10636;19.390;-99.256;2022-11-12T11:46:44;17.50;;;15.85;;
20954;SDS011;10636;19.390;-99.256;2022-11-12T11:49:34;16.15;;;14.43;;
20954;SDS011;10636;19.390;-99.256;2022-11-12T11:55:17;15.65;;;14.05;;
20954;SDS011;10636;19.390;-99.256;2022-11-12T11:57:57;15.68;;;14.07;;
20954;SDS011;10636;19.390;-99.256;2022-11-12T12:00:37;15.23;;;13.73;;
20954;SDS011;10636;19.390;-99.256;2022-11-12T12:03:17;16.77;;;15.20;;
20954;SDS011;10636;19.390;-99.256;2022-11-12T12:05:51;17.55;;;15.18;;
20954;SDS011;10636;19.390;-99.256;2022-11-12T12:09:07;17.05;;;15.48;;
20954;SDS011;10636;19.390;-99.256;2022-11-12T12:11:48;16.60;;;15.13;;
20954;SDS011;10636;19.390;-99.256;2022-11-12T12:14:30;16.98;;;15.30;;
20954;SDS011;10636;19.390;-99.256;2022-11-12T12:17:13;16.13;;;14.32;;
20954;SDS011;10636;19.390;-99.256;2022-11-12T12:19:53;15.63;;;14.02;;
20954;SDS011;10636;19.390;-99.256;2022-11-12T12:22:32;17.65;;;15.95;;
20954;SDS011;10636;19.390;-99.256;2022-11-12T12:25:07;17.08;;;14.52;;
20954;SDS011;10636;19.390;-99.256;2022-11-12T12:27:43;17.63;;;16.00;;
20954;SDS011;10636;19.390;-99.256;2022-11-12T12:30:18;17.60;;;16.00;;
20954;SDS011;10636;19.390;-99.256;2022-11-12T12:32:52;16.35;;;14.75;;
20954;SDS011;10636;19.390;-99.256;2022-11-12T12:35:25;17.38;;;15.80;;
20954;SDS011;10636;19.390;-99.256;2022-11-12T12:38:01;17.35;;;15.85;;
20954;SDS011;10636;19.390;-99.256;2022-11-12T12:40:39;16.67;;;15.07;;
20954;SDS011;10636;19.390;-99.256;2022-11-12T12:43:15;16.27;;;14.68;;
20954;SDS011;10636;19.390;-99.256;2022-11-12T12:45:47;18.02;;;16.35;;
20954;SDS011;10636;19.390;-99.256;2022-11-12T12:48:18;17.58;;;15.77;;
20954;SDS011;10636;19.390;-99.256;2022-11-12T12:50:50;17.50;;;15.82;;
20954;SDS011;10636;19.390;-99.256;2022-11-12T12:53:30;18.58;;;16.02;;
20954;SDS011;10636;19.390;-99.256;2022-11-12T12:56:00;19.30;;;17.50;;
20954;SDS011;10636;19.390;-99.256;2022-11-12T12:58:30;19.73;;;17.90;;
20954;SDS011;10636;19.390;-99.256;2022-11-12T13:01:01;18.15;;;16.25;;
20954;SDS011;10636;19.390;-99.256;2022-11-12T13:03:50;18.90;;;17.13;;
20954;SDS011;10636;19.390;-99.256;2022-11-12T13:06:22;18.80;;;17.10;;
20954;SDS011;10636;19.390;-99.256;2022-11-12T13:08:55;19.88;;;17.98;;
20954;SDS011;10636;19.390;-99.256;2022-11-12T13:11:45;18.58;;;16.88;;
20954;SDS011;10636;19.390;-99.256;2022-11-12T13:17:42;19.25;;;17.45;;
20954;SDS011;10636;19.390;-99.256;2022-11-12T13:20:23;18.92;;;15.77;;
20954;SDS011;10636;19.390;-99.256;2022-11-12T13:22:59;18.90;;;17.17;;
20954;SDS011;10636;19.390;-99.256;2022-11-12T13:25:29;18.38;;;16.67;;
20954;SDS011;10636;19.390;-99.256;2022-11-12T13:28:05;20.00;;;18.10;;
20954;SDS011;10636;19.390;-99.256;2022-11-12T13:33:32;18.20;;;16.27;;
20954;SDS011;10636;19.390;-99.256;2022-11-12T13:39:09;18.63;;;16.20;;
20954;SDS011;10636;19.390;-99.256;2022-11-12T13:41:41;19.67;;;17.73;;
20954;SDS011;10636;19.390;-99.256;2022-11-12T13:44:26;19.23;;;17.42;;
20954;SDS011;10636;19.390;-99.256;2022-11-12T13:46:55;18.17;;;16.27;;
20954;SDS011;10636;19.390;-99.256;2022-11-12T13:49:24;17.42;;;15.63;;
20954;SDS011;10636;19.390;-99.256;2022-11-12T13:51:55;18.80;;;17.05;;
20954;SDS011;10636;19.390;-99.256;2022-11-12T13:54:26;17.92;;;16.13;;
20954;SDS011;10636;19.390;-99.256;2022-11-12T13:57:14;19.48;;;17.58;;
20954;SDS011;10636;19.390;-99.256;2022-11-12T14:03:02;22.45;;;20.15;;
20954;SDS011;10636;19.390;-99.256;2022-11-12T14:05:32;23.67;;;21.48;;
20954;SDS011;10636;19.390;-99.256;2022-11-12T14:11:16;24.63;;;22.13;;
20954;SDS011;10636;19.390;-99.256;2022-11-12T14:13:59;25.33;;;22.80;;
20954;SDS011;10636;19.390;-99.256;2022-11-12T14:16:39;27.27;;;24.58;;
20954;SDS011;10636;19.390;-99.256;2022-11-12T14:22:37;28.13;;;25.38;;
20954;SDS011;10636;19.390;-99.256;2022-11-12T14:25:10;26.73;;;23.92;;
20954;SDS011;10636;19.390;-99.256;2022-11-12T14:27:44;25.92;;;23.08;;
20954;SDS011;10636;19.390;-99.256;2022-11-12T14:30:15;30.73;;;27.70;;
20954;SDS011;10636;19.390;-99.256;2022-11-12T14:32:46;30.48;;;27.40;;
20954;SDS011;10636;19.390;-99.256;2022-11-12T14:35:20;31.02;;;28.10;;
20954;SDS011;10636;19.390;-99.256;2022-11-12T14:37:58;31.65;;;28.50;;
20954;SDS011;10636;19.390;-99.256;2022-11-12T14:40:34;31.65;;;28.02;;
20954;SDS011;10636;19.390;-99.256;2022-11-12T14:43:11;29.70;;;25.15;;
20954;SDS011;10636;19.390;-99.256;2022-11-12T14:45:50;28.77;;;24.95;;